Hood River, OR (97031)

12:05 AM PDT on October 22, 2014 (GMT -0700)
Rockford | Change Station
CLOSE
Current Station
Personal Weather Station
Location: Hood River, OR
Elevation: 801 ft
Nearby Weather Stations
Active Advisory: Special Statement

Elev 801 ft 45.68 °N, 121.57 °W | Updated 9 minutes ago

Rain
Rain
49.6 °F
Feels Like 50 °F
N
0.0
Wind Variable Wind from SW

Today
High -- | Low -- °F
--% Chance of Precip.
Yesterday
High -- | Low -- °F
Precip. -- in
7:32 AM 6:08 PM
Waning Crescent, 3% visible
Pressure 29.91 in
Visibility 10.0 miles
Clouds Mostly Cloudy 11000 ft
Windchill 50 °F
Dew Point 49 °F
Humidity 99%
Rainfall 0.00 in
Snow Depth Not available.
UV 0 out of 12
Pollen 1.10 out of 12
Air Quality Not available.
Flu Activity Sporadic
METAR KDLS 220653Z AUTO 11003KT 10SM BKN110 10/08 A2991 RMK AO2 SLP128 T01000078

More Conditions Fewer Conditions

Pressure 29.91 in
Visibility 10.0 miles
Clouds Mostly Cloudy 11000 ft
Windchill 50 °F
Dew Point 49 °F
Humidity 99%
Rainfall 0.00 in
Snow Depth Not available.
UV 0 out of 12
Pollen 1.10 out of 12
Air Quality Not available.
Flu Activity Sporadic
METAR KDLS 220653Z AUTO 11003KT 10SM BKN110 10/08 A2991 RMK AO2 SLP128 T01000078

More Conditions Fewer Conditions

10-Day Weather Forecast

Almanac

Astronomy

Oct. 22, 2014 Rise Set
Actual Time 7:32 AM PDT 6:08 PM PDT
Civil Twilight 7:01 AM PDT 6:38 PM PDT
Nautical Twilight 6:27 AM PDT 7:13 PM PDT
Astronomical Twilight 5:52 AM PDT 7:47 PM PDT
Moon 6:15 AM PDT 5:40 PM PDT
Length of Visible Light 11h 36m
Length of Day
10h 36m
Tomorrow will be 3m 2s shorter.
Waning Crescent, 3% of the Moon is Illuminated
Today
Waning Crescent
Oct 23
New
Oct 30
First Quarter
Nov 6
Full
Nov 14
Last Quarter

Today's Extremes

State Highs State Lows

Community

WunderPhotos

Upload Photos

1,763,884 photos uploaded!

Nearby

Snow Depth

Station Depth Elevation
Greenpoint 0 in 3200 ft
Red Hill 0 in 4400 ft
North Fork 0 in 3120 ft
Mud Ridge 0 in 3800 ft
Clear Lake 1 in 3500 ft

Earthquake Activity

City Distance Mag. Time & Date
No recent earthquake activity has been reported nearby.
Minimum magnitude displayed is 2.5.

Coastal Water Temperatures

Place Temperature
No Stations Reporting

Nearby Weather Stations